Observations for ABERDEEN DYCE, United Kingdom (EGPD)

EGPD 221420Z 25017G28KT 9999 FEW042 13/05 Q1025 NOSIG   
EGPD 221350Z 25016KT 9999 FEW042 13/05 Q1025 NOSIG  
EGPD 221320Z AUTO 24014KT 9999 FEW042 13/05 Q1026 NOSIG 
EGPD 221250Z AUTO 23012KT 9999 BKN042 12/05 Q1027 NOSIG 
EGPD 221220Z AUTO 23011KT 9999 BKN043 12/05 Q1028 TEMPO 25015G25KT  
EGPD 221150Z AUTO 24012G22KT 210V280 9999 FEW044 13/04 Q1029 NOSIG  
EGPD 221120Z AUTO 22013KT 190V260 9999 SCT045 12/04 Q1029 NOSIG 
EGPD 221050Z AUTO 21013KT 9999 SCT045 11/04 Q1029 NOSIG 
EGPD 221020Z AUTO 21011KT 9999 BKN046 11/04 Q1030 NOSIG 
EGPD 220950Z AUTO 20010KT 9999 BKN048 10/03 Q1030 NOSIG 
EGPD 220920Z AUTO 20010KT 9999 NCD 09/02 Q1030 NOSIG
EGPD 220850Z AUTO 22008KT 9999 NCD 08/02 Q1031 NOSIG
EGPD 220820Z AUTO 22007KT 9999 NCD 07/01 Q1031 NOSIG
EGPD 220750Z AUTO 22008KT 160V230 9999 NCD 07/02 Q1031 NOSIG
EGPD 220720Z AUTO 22006KT 190V250 9999 FEW045 06/01 Q1030 NOSIG 
EGPD 220650Z AUTO 20005KT 170V270 9999 NCD 05/01 Q1030 NOSIG
EGPD 220620Z AUTO 22004KT 190V300 9999 NCD 05/01 Q1030 NOSIG
EGPD 220550Z AUTO 27008KT 9999 NCD 06/02 Q1030 NOSIG
EGPD 220520Z AUTO 23005KT 9999 NCD 05/01 Q1030 NOSIG
EGPD 220450Z AUTO 28008KT 9999 NCD 06/01 Q1030 NOSIG
EGPD 220420Z AUTO 27008KT 9999 NCD 06/01 Q1029 NOSIG
EGPD 220350Z AUTO 27010KT 9999 NCD 06/01 Q1029 NOSIG
EGPD 220320Z AUTO 25008KT 9999 FEW045 06/01 Q1029 NOSIG 
EGPD 220250Z AUTO 26008KT 9999 NCD 07/01 Q1029 NOSIG
EGPD 220220Z AUTO 25011KT 9999 NCD 06/01 Q1028 NOSIG
EGPD 220150Z AUTO 24007KT 9999 NCD 06/01 Q1028 NOSIG
EGPD 220120Z AUTO 25007KT 220V290 9999 NCD 06/01 Q1028 NOSIG
EGPD 220050Z AUTO 25009KT 9999 NCD 07/01 Q1028 NOSIG
EGPD 220020Z AUTO 24008KT 9999 NCD 07/00 Q1028 NOSIG
EGPD 212350Z AUTO 25008KT 9999 NCD 07/01 Q1028 NOSIG
EGPD 212320Z AUTO 25011KT 9999 NCD 07/01 Q1027 NOSIG
EGPD 212250Z AUTO 25008KT 9999 NCD 06/01 Q1027 NOSIG
EGPD 212220Z AUTO 24007KT 9999 NCD 06/01 Q1027 NOSIG
EGPD 212150Z AUTO 27011KT 9999 NCD 07/00 Q1027 NOSIG
EGPD 212120Z AUTO 27009KT 230V290 9999 NCD 08/01 Q1027 NOSIG
EGPD 212050Z AUTO 28013KT 9999 FEW042 08/02 Q1026 NOSIG 
EGPD 212020Z 25004KT 210V280 9999 SCT038 SCT046 08/02 Q1026 NOSIG   
EGPD 211950Z 24009KT CAVOK 07/02 Q1025 NOSIG
EGPD 211920Z AUTO 25009KT 9999 NCD 08/02 Q1025 NOSIG
EGPD 211850Z AUTO 25010KT 9999 NCD 08/01 Q1025 NOSIG
EGPD 211820Z AUTO 26009KT 9999 NCD 08/02 Q1024 NOSIG
EGPD 211750Z 27009KT 9999 FEW019 09/03 Q1024 NOSIG  
EGPD 211720Z 26010KT 9999 FEW041 09/03 Q1023 NOSIG  
EGPD 211650Z 26011KT 9999 FEW045 10/03 Q1023 NOSIG  
EGPD 211620Z 27013KT 9999 FEW035 11/05 Q1022 NOSIG  
EGPD 211550Z 28014KT 9999 SCT045 11/05 Q1022 NOSIG  
EGPD 211520Z 28013KT 9999 SCT036 12/05 Q1021 NOSIG  
EGPD 211450Z 28012KT 9999 FEW035 SCT042 12/06 Q1021 NOSIG   
EGPD 211420Z 28011KT 9999 FEW035 SCT042 12/06 Q1021 NOSIG   
EGPD 211350Z 29008KT 250V330 9999 FEW032 13/07 Q1020 NOSIG  
EGPD 211350Z AUTO 29008KT 260V330 9999 FEW041 SCT048 13/07 Q1020 NOSIG